Time;durP1;ratioP1;P1;durP2;ratioP2;P2;SDS_P1;SDS_P2;PMS_P1;PMS_P2;Temp;Humidity;BMP_temperature;BMP_pressure;BME280_temperature;BME280_humidity;BME280_pressure;Samples;Min_cycle;Max_cycle;Signal;HPM_P1;HPM_P2
2021/08/06 00:01:26;;;;;;;13.73;12.33;;;;;;;;;;4984671;28;20820;-57
2021/08/06 00:03:51;;;;;;;14.00;12.77;;;;;;;;;;4984118;28;20572;-57
2021/08/06 00:06:16;;;;;;;13.27;11.97;;;;;;;;;;4988842;28;20553;-56
2021/08/06 00:08:41;;;;;;;13.97;12.33;;;;;;;;;;4990334;28;20735;-56
2021/08/06 00:11:08;;;;;;;13.93;12.63;;;;;;;;;;4970595;28;20230;-58
2021/08/06 00:13:33;;;;;;;16.57;14.17;;;;;;;;;;4970933;28;20188;-56
2021/08/06 00:15:58;;;;;;;16.30;14.67;;;;;;;;;;4989298;28;20180;-57
2021/08/06 00:18:24;;;;;;;16.23;14.50;;;;;;;;;;4987326;28;20192;-56
2021/08/06 00:20:50;;;;;;;15.53;14.03;;;;;;;;;;4988471;28;20596;-57
2021/08/06 00:23:15;;;;;;;16.27;14.47;;;;;;;;;;4989730;28;20271;-56
2021/08/06 00:25:40;;;;;;;16.13;14.57;;;;;;;;;;4985558;28;21623;-57
2021/08/06 00:28:05;;;;;;;16.73;15.10;;;;;;;;;;4984960;28;20220;-57
2021/08/06 00:30:31;;;;;;;17.77;16.00;;;;;;;;;;4988394;28;20294;-57
2021/08/06 00:32:56;;;;;;;21.50;16.00;;;;;;;;;;4987795;28;20183;-57
2021/08/06 00:35:22;;;;;;;18.97;17.07;;;;;;;;;;4970212;28;20633;-56
2021/08/06 00:37:47;;;;;;;19.77;16.70;;;;;;;;;;4986847;28;20187;-57
2021/08/06 00:40:12;;;;;;;20.20;16.87;;;;;;;;;;4983025;28;20263;-57
2021/08/06 00:42:37;;;;;;;27.37;17.57;;;;;;;;;;4983844;28;20176;-57
2021/08/06 00:45:03;;;;;;;20.70;18.50;;;;;;;;;;4983719;28;20199;-58
2021/08/06 00:47:29;;;;;;;22.00;19.60;;;;;;;;;;4987383;28;20210;-57
2021/08/06 00:49:54;;;;;;;20.30;18.07;;;;;;;;;;4972957;28;20861;-57
2021/08/06 00:52:19;;;;;;;20.57;18.47;;;;;;;;;;4985560;28;20649;-57
2021/08/06 00:54:44;;;;;;;18.40;16.60;;;;;;;;;;4984962;28;20191;-57
2021/08/06 00:57:13;;;;;;;18.27;16.37;;;;;;;;;;4989578;28;20239;-56
2021/08/06 00:59:39;;;;;;;19.07;17.10;;;;;;;;;;4984645;28;20698;-56
2021/08/06 01:02:08;;;;;;;18.17;16.00;;;;;;;;;;4973091;28;20274;-57
2021/08/06 01:04:52;;;;;;;16.20;14.60;;;;;;;;;;4974590;28;20728;-57
2021/08/06 01:07:22;;;;;;;17.73;15.83;;;;;;;;;;4984894;28;21405;-57
2021/08/06 01:09:51;;;;;;;17.97;16.17;;;;;;;;;;4982603;28;20228;-57
2021/08/06 01:12:22;;;;;;;16.33;14.60;;;;;;;;;;4987805;28;20787;-57
2021/08/06 01:14:49;;;;;;;14.67;13.30;;;;;;;;;;4988537;28;20270;-57
2021/08/06 01:17:14;;;;;;;17.50;14.37;;;;;;;;;;4971696;28;20183;-57
2021/08/06 01:19:49;;;;;;;16.90;15.10;;;;;;;;;;4986917;28;20180;-56
2021/08/06 01:22:15;;;;;;;16.30;14.70;;;;;;;;;;4983454;28;20203;-55
2021/08/06 01:24:42;;;;;;;15.17;13.67;;;;;;;;;;4986557;28;20239;-57
2021/08/06 01:27:07;;;;;;;16.67;14.87;;;;;;;;;;4986323;28;20842;-57
2021/08/06 01:29:33;;;;;;;17.70;15.90;;;;;;;;;;4987246;28;20242;-56
2021/08/06 01:31:58;;;;;;;17.90;15.60;;;;;;;;;;4991007;28;20228;-57
2021/08/06 01:34:23;;;;;;;18.43;14.80;;;;;;;;;;4986897;28;20180;-57
2021/08/06 01:36:49;;;;;;;20.60;16.47;;;;;;;;;;4988388;28;20647;-57
2021/08/06 01:39:15;;;;;;;20.87;17.63;;;;;;;;;;4993539;28;20187;-57
2021/08/06 01:41:40;;;;;;;20.83;18.43;;;;;;;;;;4983021;28;20212;-57
2021/08/06 01:44:08;;;;;;;21.67;19.30;;;;;;;;;;4983203;28;20193;-57
2021/08/06 01:46:35;;;;;;;21.17;17.57;;;;;;;;;;4990075;28;20184;-57
2021/08/06 01:49:09;;;;;;;24.60;20.07;;;;;;;;;;4983756;28;20199;-57
2021/08/06 01:51:34;;;;;;;26.53;19.93;;;;;;;;;;4969045;28;20303;-57
2021/08/06 01:54:02;;;;;;;21.93;17.90;;;;;;;;;;4987847;28;20267;-57
2021/08/06 01:56:27;;;;;;;23.57;17.63;;;;;;;;;;4981359;28;20235;-58
2021/08/06 01:58:54;;;;;;;19.67;16.70;;;;;;;;;;4990817;28;20176;-57
2021/08/06 02:01:19;;;;;;;19.67;16.97;;;;;;;;;;4983299;28;20209;-57
2021/08/06 02:03:44;;;;;;;18.37;16.40;;;;;;;;;;4986522;28;20199;-56
2021/08/06 02:06:10;;;;;;;17.43;15.27;;;;;;;;;;4982972;28;20560;-59
2021/08/06 02:08:36;;;;;;;19.27;16.10;;;;;;;;;;4985948;28;20254;-57
2021/08/06 02:11:01;;;;;;;17.90;15.40;;;;;;;;;;4969921;28;20223;-58
2021/08/06 02:13:26;;;;;;;20.23;16.87;;;;;;;;;;4988357;28;20181;-57
2021/08/06 02:15:51;;;;;;;20.67;17.40;;;;;;;;;;4972296;28;20255;-57
2021/08/06 02:18:22;;;;;;;25.03;17.70;;;;;;;;;;4986389;28;20662;-57
2021/08/06 02:20:49;;;;;;;22.07;17.93;;;;;;;;;;4986699;28;20260;-56
2021/08/06 02:23:15;;;;;;;24.70;18.87;;;;;;;;;;4985843;28;20205;-57
2021/08/06 02:25:40;;;;;;;24.20;19.40;;;;;;;;;;4988206;28;20336;-57
2021/08/06 02:28:06;;;;;;;24.73;20.20;;;;;;;;;;4990074;28;20211;-57
2021/08/06 02:30:31;;;;;;;28.03;20.43;;;;;;;;;;4982810;28;20204;-56
2021/08/06 02:32:57;;;;;;;24.90;20.43;;;;;;;;;;4956687;28;20164;-56
2021/08/06 02:35:23;;;;;;;22.50;17.67;;;;;;;;;;4989322;28;20590;-57
2021/08/06 02:37:49;;;;;;;20.83;16.83;;;;;;;;;;4988979;28;20275;-56
2021/08/06 02:40:15;;;;;;;16.97;15.27;;;;;;;;;;4986850;28;20173;-57
2021/08/06 02:42:40;;;;;;;18.87;15.37;;;;;;;;;;4990592;28;20241;-56
2021/08/06 02:45:06;;;;;;;18.77;14.83;;;;;;;;;;4985150;28;20203;-57
2021/08/06 02:47:31;;;;;;;16.20;14.50;;;;;;;;;;4990989;28;20176;-56
2021/08/06 02:49:56;;;;;;;18.97;16.97;;;;;;;;;;4988830;28;20200;-57
2021/08/06 02:52:21;;;;;;;20.67;18.47;;;;;;;;;;4990235;28;20211;-56
2021/08/06 02:54:46;;;;;;;21.47;18.80;;;;;;;;;;4992229;28;20234;-56
2021/08/06 02:57:11;;;;;;;22.10;18.50;;;;;;;;;;4988310;28;20196;-56
2021/08/06 02:59:37;;;;;;;23.73;18.47;;;;;;;;;;4986256;28;20254;-57
2021/08/06 03:02:02;;;;;;;20.07;17.97;;;;;;;;;;4977537;28;20208;-57
2021/08/06 03:04:27;;;;;;;20.73;17.70;;;;;;;;;;4986585;28;20715;-56
2021/08/06 03:06:53;;;;;;;22.23;18.43;;;;;;;;;;4980062;28;20267;-58
2021/08/06 03:09:19;;;;;;;21.77;18.80;;;;;;;;;;4987157;28;20204;-56
2021/08/06 03:11:44;;;;;;;20.83;17.33;;;;;;;;;;4988912;28;20204;-57
2021/08/06 03:14:09;;;;;;;24.57;19.03;;;;;;;;;;4982816;28;20173;-57
2021/08/06 03:16:34;;;;;;;25.90;20.27;;;;;;;;;;4987809;28;20192;-56
2021/08/06 03:18:59;;;;;;;28.80;21.60;;;;;;;;;;4989944;28;20258;-57
2021/08/06 03:21:25;;;;;;;31.20;23.97;;;;;;;;;;4991618;28;20629;-57
2021/08/06 03:23:50;;;;;;;27.23;21.20;;;;;;;;;;4988865;28;20192;-56
2021/08/06 03:26:15;;;;;;;25.33;20.83;;;;;;;;;;4988828;28;20184;-57
2021/08/06 03:28:40;;;;;;;29.37;22.10;;;;;;;;;;4992687;28;20199;-57
2021/08/06 03:31:05;;;;;;;30.13;22.30;;;;;;;;;;4987196;28;20216;-57
2021/08/06 03:33:31;;;;;;;32.00;24.07;;;;;;;;;;4991269;28;20181;-56
2021/08/06 03:35:56;;;;;;;33.47;23.90;;;;;;;;;;4990652;28;20545;-56
2021/08/06 03:38:22;;;;;;;31.10;22.97;;;;;;;;;;4988153;28;20188;-57
2021/08/06 03:40:48;;;;;;;34.87;23.67;;;;;;;;;;4988506;28;20231;-57
2021/08/06 03:43:13;;;;;;;33.03;24.37;;;;;;;;;;4988723;28;20211;-57
2021/08/06 03:45:39;;;;;;;33.10;23.33;;;;;;;;;;4987028;28;20751;-56
2021/08/06 03:48:04;;;;;;;35.63;24.00;;;;;;;;;;4991401;28;20203;-56
2021/08/06 03:50:30;;;;;;;34.10;24.33;;;;;;;;;;4986674;28;20210;-56
2021/08/06 03:52:55;;;;;;;32.77;24.77;;;;;;;;;;4987228;28;20267;-57
2021/08/06 03:55:20;;;;;;;40.93;27.20;;;;;;;;;;4993839;28;20264;-57
2021/08/06 03:57:53;;;;;;;35.97;26.23;;;;;;;;;;4985986;28;20183;-57
2021/08/06 04:00:18;;;;;;;39.73;26.37;;;;;;;;;;4989866;28;20274;-57
2021/08/06 04:02:44;;;;;;;31.67;24.93;;;;;;;;;;4987576;28;20180;-56
2021/08/06 04:05:09;;;;;;;40.03;25.80;;;;;;;;;;4988131;28;20548;-56
2021/08/06 04:07:35;;;;;;;34.87;23.93;;;;;;;;;;4986778;28;20246;-57
2021/08/06 04:10:02;;;;;;;37.10;25.43;;;;;;;;;;4989201;28;20212;-57
2021/08/06 04:12:27;;;;;;;32.90;24.00;;;;;;;;;;4985713;28;20220;-56
2021/08/06 04:14:52;;;;;;;34.83;24.80;;;;;;;;;;4984146;28;20635;-58
2021/08/06 04:17:17;;;;;;;32.27;25.20;;;;;;;;;;4985843;28;20636;-57
2021/08/06 04:19:43;;;;;;;28.57;22.97;;;;;;;;;;4986651;28;20176;-57
2021/08/06 04:22:08;;;;;;;34.67;24.43;;;;;;;;;;4992756;28;20195;-57
2021/08/06 04:24:33;;;;;;;30.77;22.93;;;;;;;;;;4984905;28;20196;-56
2021/08/06 04:26:58;;;;;;;26.63;21.80;;;;;;;;;;4986978;28;20173;-58
2021/08/06 04:29:23;;;;;;;28.60;22.53;;;;;;;;;;4991060;28;20244;-56
2021/08/06 04:31:48;;;;;;;29.93;23.10;;;;;;;;;;4988353;28;20193;-56
2021/08/06 04:34:14;;;;;;;33.00;24.40;;;;;;;;;;4989599;28;20554;-56
2021/08/06 04:36:39;;;;;;;27.13;23.57;;;;;;;;;;4990398;28;20817;-57
2021/08/06 04:39:04;;;;;;;25.97;21.87;;;;;;;;;;4988567;28;20188;-56
2021/08/06 04:41:29;;;;;;;24.20;21.60;;;;;;;;;;4986264;28;20235;-57
2021/08/06 04:43:54;;;;;;;26.63;21.37;;;;;;;;;;4986971;28;20243;-56
2021/08/06 04:46:20;;;;;;;26.17;21.63;;;;;;;;;;4983836;28;20283;-58
2021/08/06 04:48:45;;;;;;;22.43;20.03;;;;;;;;;;4990365;28;20207;-57
2021/08/06 04:51:10;;;;;;;23.67;20.60;;;;;;;;;;4988542;28;20212;-59
2021/08/06 04:53:35;;;;;;;25.33;20.93;;;;;;;;;;4983994;28;20213;-57
2021/08/06 04:56:01;;;;;;;23.30;20.07;;;;;;;;;;4989097;28;20226;-56
2021/08/06 04:58:26;;;;;;;23.53;19.90;;;;;;;;;;4987574;28;20242;-56
2021/08/06 05:00:51;;;;;;;22.40;19.73;;;;;;;;;;4985220;28;20208;-57
2021/08/06 05:03:16;;;;;;;24.40;21.27;;;;;;;;;;4987693;28;20573;-56
2021/08/06 05:05:41;;;;;;;24.87;20.07;;;;;;;;;;4986221;28;20559;-56
2021/08/06 05:08:07;;;;;;;24.27;20.27;;;;;;;;;;4988255;28;20216;-57
2021/08/06 05:10:32;;;;;;;21.83;18.03;;;;;;;;;;4969526;28;20889;-56
2021/08/06 05:12:57;;;;;;;20.53;18.47;;;;;;;;;;4980813;28;20189;-57
2021/08/06 05:15:22;;;;;;;25.53;20.77;;;;;;;;;;4987724;28;20202;-56
2021/08/06 05:17:48;;;;;;;25.80;20.30;;;;;;;;;;4972493;28;20188;-57
2021/08/06 05:20:13;;;;;;;29.90;22.10;;;;;;;;;;4985439;28;20187;-57
2021/08/06 05:22:38;;;;;;;30.33;22.27;;;;;;;;;;4988211;28;20219;-57
2021/08/06 05:25:04;;;;;;;30.40;21.23;;;;;;;;;;4986440;28;20180;-57
2021/08/06 05:27:29;;;;;;;22.63;17.20;;;;;;;;;;4987566;28;20606;-57
2021/08/06 05:29:54;;;;;;;28.80;18.70;;;;;;;;;;4984702;28;20219;-57
2021/08/06 05:32:19;;;;;;;27.13;19.83;;;;;;;;;;4985595;28;20218;-57
2021/08/06 05:34:44;;;;;;;34.20;22.00;;;;;;;;;;4983364;28;20208;-56
2021/08/06 05:37:10;;;;;;;30.87;21.43;;;;;;;;;;4978595;28;20184;-57
2021/08/06 05:39:35;;;;;;;28.03;19.23;;;;;;;;;;4979635;28;20188;-57
2021/08/06 05:42:00;;;;;;;25.23;17.37;;;;;;;;;;4973832;28;20228;-56
2021/08/06 05:44:25;;;;;;;31.47;22.23;;;;;;;;;;4981886;28;20792;-57
2021/08/06 05:46:50;;;;;;;26.77;17.70;;;;;;;;;;4978338;28;20200;-57
2021/08/06 05:49:16;;;;;;;30.87;21.33;;;;;;;;;;4978364;28;20361;-57
2021/08/06 05:51:41;;;;;;;28.87;19.93;;;;;;;;;;4978552;28;20720;-57
2021/08/06 05:54:06;;;;;;;28.80;19.03;;;;;;;;;;4976597;28;20199;-57
2021/08/06 05:56:31;;;;;;;26.90;19.80;;;;;;;;;;4976355;28;20181;-57
2021/08/06 05:58:56;;;;;;;25.37;18.57;;;;;;;;;;4979847;28;20187;-56
2021/08/06 06:01:22;;;;;;;27.73;20.30;;;;;;;;;;4983852;28;20204;-57
2021/08/06 06:03:47;;;;;;;25.10;19.50;;;;;;;;;;4988753;28;20180;-57
2021/08/06 06:06:12;;;;;;;25.00;18.33;;;;;;;;;;4978814;28;20192;-57
2021/08/06 06:08:37;;;;;;;21.53;16.23;;;;;;;;;;4988672;28;20275;-55
2021/08/06 06:11:02;;;;;;;23.53;18.13;;;;;;;;;;4992533;28;20211;-57
2021/08/06 06:13:28;;;;;;;26.03;18.73;;;;;;;;;;4986491;28;20180;-57
2021/08/06 06:15:53;;;;;;;23.43;18.33;;;;;;;;;;4994990;28;20583;-57
2021/08/06 06:18:18;;;;;;;22.10;17.90;;;;;;;;;;4990885;28;20739;-56
2021/08/06 06:20:43;;;;;;;24.17;17.20;;;;;;;;;;4983760;28;20266;-57
2021/08/06 06:23:08;;;;;;;21.83;16.43;;;;;;;;;;4982684;28;20187;-57
2021/08/06 06:25:34;;;;;;;17.33;13.87;;;;;;;;;;4986145;28;20218;-57
2021/08/06 06:28:00;;;;;;;21.50;15.70;;;;;;;;;;4968033;28;20192;-57
2021/08/06 06:30:26;;;;;;;20.90;17.03;;;;;;;;;;4989711;28;20300;-57
2021/08/06 06:32:52;;;;;;;21.93;17.03;;;;;;;;;;4989798;28;20213;-56
2021/08/06 06:35:17;;;;;;;21.43;16.30;;;;;;;;;;4993394;28;20192;-57
2021/08/06 06:37:43;;;;;;;18.00;15.20;;;;;;;;;;4992569;28;20234;-56
2021/08/06 06:40:08;;;;;;;15.93;13.00;;;;;;;;;;4986957;28;20191;-56
2021/08/06 06:42:33;;;;;;;16.20;13.63;;;;;;;;;;4991534;28;20267;-57
2021/08/06 06:44:59;;;;;;;16.38;13.60;;;;;;;;;;4991411;28;20582;-55
2021/08/06 06:47:24;;;;;;;15.70;13.13;;;;;;;;;;4990785;28;20842;-56
2021/08/06 06:49:49;;;;;;;15.83;13.17;;;;;;;;;;4993607;28;20199;-56
2021/08/06 06:52:14;;;;;;;12.73;11.20;;;;;;;;;;4990031;28;20602;-56
2021/08/06 06:54:39;;;;;;;15.25;12.05;;;;;;;;;;4991073;28;20281;-56
2021/08/06 06:57:05;;;;;;;13.68;11.80;;;;;;;;;;4985642;28;20186;-56
2021/08/06 06:59:30;;;;;;;13.57;9.23;;;;;;;;;;4974384;28;20184;-56
2021/08/06 07:01:55;;;;;;;9.80;8.80;;;;;;;;;;4988977;28;20239;-56
2021/08/06 07:04:20;;;;;;;9.13;8.23;;;;;;;;;;4989550;28;20181;-56
2021/08/06 07:06:45;;;;;;;7.75;6.32;;;;;;;;;;4972012;28;20198;-56
2021/08/06 07:09:11;;;;;;;7.77;6.97;;;;;;;;;;4974001;28;20627;-57
2021/08/06 07:11:36;;;;;;;8.45;7.50;;;;;;;;;;4985517;28;20467;-56
2021/08/06 07:14:01;;;;;;;7.40;6.57;;;;;;;;;;4972983;28;20214;-57
2021/08/06 07:16:26;;;;;;;7.15;6.45;;;;;;;;;;4990903;28;20173;-56
2021/08/06 07:18:51;;;;;;;6.97;6.27;;;;;;;;;;4964635;28;93910;-57
2021/08/06 07:21:17;;;;;;;6.40;5.60;;;;;;;;;;4959656;28;20609;-58
2021/08/06 07:23:42;;;;;;;7.13;6.43;;;;;;;;;;4966753;28;20474;-57
2021/08/06 07:26:07;;;;;;;6.83;6.23;;;;;;;;;;4958063;28;20428;-56
2021/08/06 07:28:32;;;;;;;5.85;5.25;;;;;;;;;;4967675;28;20916;-58
2021/08/06 07:30:58;;;;;;;6.45;5.82;;;;;;;;;;4972772;28;20204;-57
2021/08/06 07:33:23;;;;;;;6.17;5.57;;;;;;;;;;4967697;28;20226;-57
2021/08/06 07:35:48;;;;;;;8.02;6.38;;;;;;;;;;4971907;28;20424;-57
2021/08/06 07:38:16;;;;;;;7.45;6.72;;;;;;;;;;4959315;28;20238;-57
2021/08/06 07:40:42;;;;;;;7.15;6.45;;;;;;;;;;4969863;28;20196;-57
2021/08/06 07:43:07;;;;;;;6.82;6.22;;;;;;;;;;4970654;28;20299;-56
2021/08/06 07:45:32;;;;;;;6.32;5.72;;;;;;;;;;4969937;28;20184;-57
2021/08/06 07:47:57;;;;;;;5.95;5.47;;;;;;;;;;4967375;28;20195;-58
2021/08/06 07:50:22;;;;;;;6.10;5.60;;;;;;;;;;4953582;28;20272;-59
2021/08/06 07:52:47;;;;;;;6.57;5.97;;;;;;;;;;4970819;28;20953;-59
2021/08/06 07:55:13;;;;;;;6.63;6.03;;;;;;;;;;4970947;28;20193;-59
2021/08/06 07:57:39;;;;;;;6.75;5.70;;;;;;;;;;4969489;28;20420;-58
2021/08/06 08:00:04;;;;;;;6.05;5.55;;;;;;;;;;4962984;28;20661;-60
2021/08/06 08:02:31;;;;;;;5.85;5.40;;;;;;;;;;4953280;28;20600;-60
2021/08/06 08:04:56;;;;;;;6.60;6.00;;;;;;;;;;4972843;28;20692;-60
2021/08/06 08:07:22;;;;;;;5.73;5.33;;;;;;;;;;4969851;28;20185;-58
2021/08/06 08:09:47;;;;;;;6.60;5.97;;;;;;;;;;4969403;28;20487;-60
2021/08/06 08:12:13;;;;;;;8.30;5.85;;;;;;;;;;4956936;28;20299;-59
2021/08/06 08:14:38;;;;;;;6.75;6.15;;;;;;;;;;4969774;28;20185;-58
2021/08/06 08:17:04;;;;;;;5.97;5.20;;;;;;;;;;4967776;28;20177;-59
2021/08/06 08:19:29;;;;;;;7.25;6.18;;;;;;;;;;4966320;28;20467;-60
2021/08/06 08:21:54;;;;;;;6.80;6.20;;;;;;;;;;4951691;28;20224;-59
2021/08/06 08:24:19;;;;;;;7.32;6.72;;;;;;;;;;4961883;28;20177;-60
2021/08/06 08:26:45;;;;;;;6.23;5.63;;;;;;;;;;4966677;28;20213;-59
2021/08/06 08:29:10;;;;;;;6.93;5.85;;;;;;;;;;4969113;28;20952;-60
2021/08/06 08:31:35;;;;;;;5.95;5.45;;;;;;;;;;4969942;28;20208;-60
2021/08/06 08:34:00;;;;;;;5.25;4.85;;;;;;;;;;4968456;28;20206;-60
2021/08/06 08:36:27;;;;;;;6.47;3.75;;;;;;;;;;4968355;28;20312;-60
2021/08/06 08:38:52;;;;;;;4.25;3.88;;;;;;;;;;4971330;28;20267;-59
2021/08/06 08:41:17;;;;;;;4.10;3.70;;;;;;;;;;4964338;28;20347;-61
2021/08/06 08:43:43;;;;;;;4.43;4.03;;;;;;;;;;4963480;28;20440;-60
2021/08/06 08:46:09;;;;;;;4.60;4.20;;;;;;;;;;4965135;28;20438;-58
2021/08/06 08:48:34;;;;;;;4.35;4.05;;;;;;;;;;4951287;28;20545;-59
2021/08/06 08:50:59;;;;;;;4.72;4.10;;;;;;;;;;4958425;28;20228;-59
2021/08/06 08:53:25;;;;;;;4.05;3.65;;;;;;;;;;4970978;28;20184;-58
2021/08/06 08:55:50;;;;;;;5.38;3.65;;;;;;;;;;4967300;28;20580;-58
2021/08/06 08:58:15;;;;;;;5.05;3.40;;;;;;;;;;4968424;28;20193;-57
2021/08/06 09:00:41;;;;;;;4.55;3.30;;;;;;;;;;4966681;28;20287;-57
2021/08/06 09:03:06;;;;;;;4.45;2.50;;;;;;;;;;4968241;28;20223;-58
2021/08/06 09:05:31;;;;;;;3.03;2.80;;;;;;;;;;4972035;28;20189;-58
2021/08/06 09:07:58;;;;;;;3.35;2.58;;;;;;;;;;4969963;28;20188;-58
2021/08/06 09:10:28;;;;;;;3.20;2.90;;;;;;;;;;4965615;28;20195;-59
2021/08/06 09:12:56;;;;;;;2.53;2.33;;;;;;;;;;4971663;28;20228;-59
2021/08/06 09:15:40;;;;;;;2.90;2.70;;;;;;;;;;4962644;28;20196;-59
2021/08/06 09:18:27;;;;;;;3.83;2.60;;;;;;;;;;4967152;28;20217;-59
2021/08/06 09:20:54;;;;;;;2.50;2.30;;;;;;;;;;4970799;28;20228;-57
2021/08/06 09:23:39;;;;;;;2.42;2.22;;;;;;;;;;4970491;28;20208;-57
2021/08/06 09:26:05;;;;;;;4.18;3.28;;;;;;;;;;4968623;28;20739;-57
2021/08/06 09:28:30;;;;;;;3.42;2.60;;;;;;;;;;4969121;28;20204;-58
2021/08/06 09:30:56;;;;;;;4.82;2.70;;;;;;;;;;4965907;28;20303;-59
2021/08/06 09:33:31;;;;;;;2.42;2.22;;;;;;;;;;4967835;28;20176;-57
2021/08/06 09:36:12;;;;;;;2.38;2.17;;;;;;;;;;4969272;28;20438;-58
2021/08/06 09:38:38;;;;;;;2.33;2.13;;;;;;;;;;4969299;28;20269;-58
2021/08/06 09:41:03;;;;;;;2.20;2.00;;;;;;;;;;4964236;28;20288;-58
2021/08/06 09:43:29;;;;;;;2.20;2.00;;;;;;;;;;4971195;28;20188;-57
2021/08/06 09:45:54;;;;;;;2.60;2.40;;;;;;;;;;4954981;28;20824;-58
2021/08/06 09:48:23;;;;;;;2.95;2.08;;;;;;;;;;4972948;28;20602;-58
2021/08/06 10:06:13;;;;;;;2.42;2.22;;;;;;;;;;4960364;28;20223;-56
2021/08/06 10:08:38;;;;;;;3.80;2.00;;;;;;;;;;4954288;28;20205;-56
2021/08/06 10:11:03;;;;;;;3.03;2.30;;;;;;;;;;4972389;28;20203;-56
2021/08/06 10:13:29;;;;;;;2.40;2.20;;;;;;;;;;4973779;28;20181;-58
2021/08/06 10:15:54;;;;;;;2.50;2.30;;;;;;;;;;4969171;28;20196;-57
2021/08/06 10:18:20;;;;;;;3.63;2.47;;;;;;;;;;4971705;28;20661;-58
2021/08/06 10:20:47;;;;;;;2.78;2.40;;;;;;;;;;4969341;28;20677;-59
2021/08/06 10:23:12;;;;;;;3.35;2.38;;;;;;;;;;4952777;28;20223;-59
2021/08/06 10:25:37;;;;;;;6.00;2.60;;;;;;;;;;4969746;28;20221;-59
2021/08/06 10:28:03;;;;;;;2.80;2.60;;;;;;;;;;4969020;28;20228;-59
2021/08/06 10:30:30;;;;;;;5.78;2.80;;;;;;;;;;4967688;28;21327;-58
2021/08/06 11:06:35;;;;;;;2.88;2.13;;;;;;;;;;4969190;28;20239;-61
2021/08/06 11:09:01;;;;;;;4.50;2.20;;;;;;;;;;4957908;28;20205;-59
2021/08/06 11:11:45;;;;;;;3.03;2.08;;;;;;;;;;4953242;28;20223;-61
2021/08/06 11:14:11;;;;;;;2.30;2.10;;;;;;;;;;4968289;28;20181;-60
2021/08/06 11:16:55;;;;;;;2.30;2.13;;;;;;;;;;4979890;28;20223;-59
2021/08/06 11:19:27;;;;;;;2.67;2.00;;;;;;;;;;4973418;28;20189;-56
2021/08/06 11:21:53;;;;;;;1.80;1.70;;;;;;;;;;4970640;28;20219;-58
2021/08/06 11:24:18;;;;;;;2.20;2.00;;;;;;;;;;4972803;28;20193;-61
2021/08/06 11:26:47;;;;;;;3.17;2.50;;;;;;;;;;4972267;28;20494;-59
2021/08/06 11:29:13;;;;;;;3.45;2.00;;;;;;;;;;4969892;28;20290;-60
2021/08/06 11:31:38;;;;;;;5.32;2.30;;;;;;;;;;4950618;28;20217;-58
2021/08/06 11:34:04;;;;;;;2.13;1.85;;;;;;;;;;4977849;23;20243;-58
2021/08/06 11:36:30;;;;;;;2.03;1.83;;;;;;;;;;4967910;28;20188;-58
2021/08/06 11:39:02;;;;;;;2.33;2.13;;;;;;;;;;4950368;28;20287;-58
2021/08/06 11:41:27;;;;;;;3.38;2.20;;;;;;;;;;4968086;28;20184;-58
2021/08/06 11:43:52;;;;;;;3.97;2.13;;;;;;;;;;4966949;28;20234;-58
2021/08/06 11:46:18;;;;;;;2.17;2.05;;;;;;;;;;4970109;28;20181;-57
2021/08/06 11:49:03;;;;;;;2.00;1.90;;;;;;;;;;4965506;28;20595;-58
2021/08/06 11:51:28;;;;;;;2.20;2.00;;;;;;;;;;4949428;28;20239;-57
2021/08/06 11:53:54;;;;;;;4.68;2.72;;;;;;;;;;4968205;28;20197;-57
2021/08/06 11:56:20;;;;;;;2.00;1.90;;;;;;;;;;4965691;28;20240;-56
2021/08/06 11:58:46;;;;;;;3.08;1.92;;;;;;;;;;4957791;28;20653;-57
2021/08/06 12:01:19;;;;;;;1.92;1.83;;;;;;;;;;4959836;28;20204;-57
2021/08/06 12:03:46;;;;;;;2.30;2.10;;;;;;;;;;4958904;28;20583;-56
2021/08/06 12:06:11;;;;;;;1.95;1.75;;;;;;;;;;4966849;28;20679;-57
2021/08/06 12:08:36;;;;;;;3.10;2.00;;;;;;;;;;4961352;28;20286;-57
2021/08/06 12:11:04;;;;;;;1.83;1.70;;;;;;;;;;4958331;28;20197;-56
2021/08/06 12:13:30;;;;;;;2.00;1.80;;;;;;;;;;4962302;28;20183;-57
2021/08/06 12:16:12;;;;;;;4.80;2.03;;;;;;;;;;4967676;28;20216;-56
2021/08/06 12:18:41;;;;;;;2.30;2.05;;;;;;;;;;4957008;28;20185;-57
2021/08/06 12:21:13;;;;;;;3.00;1.90;;;;;;;;;;4959384;28;20789;-57
2021/08/06 12:23:42;;;;;;;10.98;3.00;;;;;;;;;;4964891;28;20708;-56
2021/08/06 12:26:10;;;;;;;1.50;1.40;;;;;;;;;;4959048;28;20869;-58
2021/08/06 12:28:36;;;;;;;3.05;1.98;;;;;;;;;;4964178;28;20204;-59
2021/08/06 12:31:26;;;;;;;1.88;1.40;;;;;;;;;;4948587;28;20192;-59
2021/08/06 12:34:03;;;;;;;1.40;1.30;;;;;;;;;;4951375;28;20223;-59
2021/08/06 12:36:29;;;;;;;1.95;1.15;;;;;;;;;;4966313;28;20251;-59
2021/08/06 12:39:04;;;;;;;1.40;1.30;;;;;;;;;;4966704;28;20196;-59
2021/08/06 12:41:30;;;;;;;2.58;1.50;;;;;;;;;;4958356;28;20215;-59
2021/08/06 12:44:14;;;;;;;1.30;1.17;;;;;;;;;;4967706;28;20189;-60
2021/08/06 12:46:39;;;;;;;1.77;1.65;;;;;;;;;;4966880;28;20188;-61
2021/08/06 12:49:09;;;;;;;1.60;1.50;;;;;;;;;;4966768;28;20586;-59
2021/08/06 12:51:35;;;;;;;2.55;1.95;;;;;;;;;;4956753;28;20201;-59
2021/08/06 12:54:00;;;;;;;2.13;1.27;;;;;;;;;;4956388;28;20174;-61
2021/08/06 12:56:25;;;;;;;1.80;1.40;;;;;;;;;;4944123;28;20193;-59
2021/08/06 12:59:09;;;;;;;2.00;1.70;;;;;;;;;;4973086;28;20185;-59
2021/08/06 13:01:37;;;;;;;3.85;1.27;;;;;;;;;;4966180;28;20184;-60
2021/08/06 13:04:02;;;;;;;2.70;1.33;;;;;;;;;;4955910;28;20213;-60
2021/08/06 13:06:43;;;;;;;0.80;0.80;;;;;;;;;;4959638;28;20178;-61
2021/08/06 13:09:09;;;;;;;1.00;0.82;;;;;;;;;;4965799;28;20228;-61
2021/08/06 13:11:34;;;;;;;1.20;1.10;;;;;;;;;;4966717;28;20663;-60
2021/08/06 13:13:59;;;;;;;1.45;1.20;;;;;;;;;;4968716;28;20185;-57
2021/08/06 13:16:25;;;;;;;1.35;1.10;;;;;;;;;;4956676;28;20184;-61
2021/08/06 13:18:51;;;;;;;1.85;1.00;;;;;;;;;;4961597;28;20239;-60
2021/08/06 13:21:17;;;;;;;1.90;1.38;;;;;;;;;;4966982;28;20184;-61
2021/08/06 13:23:42;;;;;;;1.50;1.40;;;;;;;;;;4948622;28;20333;-61
2021/08/06 13:26:09;;;;;;;1.08;1.00;;;;;;;;;;4958052;28;20212;-59
2021/08/06 13:28:34;;;;;;;1.13;1.05;;;;;;;;;;4973177;28;20287;-60
2021/08/06 13:31:00;;;;;;;1.15;1.00;;;;;;;;;;4975683;28;20259;-62
2021/08/06 13:33:25;;;;;;;1.50;1.40;;;;;;;;;;4952465;28;20208;-61
2021/08/06 13:35:52;;;;;;;1.00;1.00;;;;;;;;;;4963705;28;20597;-61
2021/08/06 13:38:17;;;;;;;3.42;1.23;;;;;;;;;;4967824;28;20190;-62
2021/08/06 13:40:43;;;;;;;2.38;1.10;;;;;;;;;;4965746;28;20195;-61
2021/08/06 13:43:08;;;;;;;1.25;1.15;;;;;;;;;;4964943;28;20176;-60
2021/08/06 13:45:33;;;;;;;1.40;1.00;;;;;;;;;;4965382;28;20595;-60
2021/08/06 13:47:59;;;;;;;1.00;0.90;;;;;;;;;;4953851;28;20237;-59
2021/08/06 13:50:24;;;;;;;2.17;0.90;;;;;;;;;;4960262;28;20693;-59
2021/08/06 13:52:49;;;;;;;1.08;1.00;;;;;;;;;;4965001;28;20192;-60
2021/08/06 13:55:15;;;;;;;0.90;0.90;;;;;;;;;;4947637;28;20205;-61
2021/08/06 13:57:40;;;;;;;0.80;0.80;;;;;;;;;;4946980;28;20266;-60
2021/08/06 14:00:06;;;;;;;1.13;0.90;;;;;;;;;;4965516;28;20200;-59
2021/08/06 14:02:31;;;;;;;1.38;0.90;;;;;;;;;;4963195;28;20254;-62
2021/08/06 14:04:56;;;;;;;1.85;1.10;;;;;;;;;;4962573;28;20678;-60
2021/08/06 14:07:22;;;;;;;1.38;0.93;;;;;;;;;;4963513;28;20212;-62
2021/08/06 14:09:47;;;;;;;0.80;0.80;;;;;;;;;;4960464;28;20216;-60
2021/08/06 14:12:13;;;;;;;1.58;0.75;;;;;;;;;;4961145;28;20215;-59
2021/08/06 14:14:38;;;;;;;0.70;0.70;;;;;;;;;;4960565;28;20250;-61
2021/08/06 14:17:04;;;;;;;0.88;0.88;;;;;;;;;;4970330;28;20713;-61
2021/08/06 14:19:29;;;;;;;1.10;1.00;;;;;;;;;;4962880;28;20244;-61
2021/08/06 14:21:54;;;;;;;1.75;1.00;;;;;;;;;;4965093;28;20199;-59
2021/08/06 14:24:19;;;;;;;1.20;1.10;;;;;;;;;;4961271;28;20201;-59
2021/08/06 14:26:45;;;;;;;1.02;0.93;;;;;;;;;;4972112;28;20657;-60
2021/08/06 14:29:11;;;;;;;1.40;0.95;;;;;;;;;;4970967;28;20307;-60
2021/08/06 14:31:36;;;;;;;0.82;0.82;;;;;;;;;;4967297;28;20264;-60
2021/08/06 14:34:01;;;;;;;0.98;0.98;;;;;;;;;;4953306;28;20886;-60
2021/08/06 14:36:26;;;;;;;1.17;0.93;;;;;;;;;;4971253;28;20220;-61
2021/08/06 14:38:52;;;;;;;2.35;1.10;;;;;;;;;;4971358;28;21157;-60
2021/08/06 14:41:17;;;;;;;0.98;0.95;;;;;;;;;;4972705;28;20189;-59
2021/08/06 14:43:42;;;;;;;1.10;1.00;;;;;;;;;;4954058;28;20760;-61
2021/08/06 14:46:07;;;;;;;1.20;1.10;;;;;;;;;;4951253;28;20455;-59
2021/08/06 14:48:34;;;;;;;2.35;1.10;;;;;;;;;;4960003;28;20940;-61
2021/08/06 14:50:59;;;;;;;1.50;1.40;;;;;;;;;;4962125;28;20586;-61
2021/08/06 14:53:25;;;;;;;2.13;1.33;;;;;;;;;;4961025;28;20181;-60
2021/08/06 14:55:50;;;;;;;3.38;1.13;;;;;;;;;;4959825;28;20201;-61
2021/08/06 14:58:15;;;;;;;1.55;1.23;;;;;;;;;;4958627;28;20704;-60
2021/08/06 15:00:40;;;;;;;3.10;1.30;;;;;;;;;;4958837;28;20184;-60
2021/08/06 15:03:06;;;;;;;5.07;1.60;;;;;;;;;;4957184;28;20204;-62
2021/08/06 15:05:31;;;;;;;2.27;1.40;;;;;;;;;;4958575;28;20276;-60
2021/08/06 15:07:56;;;;;;;1.67;1.10;;;;;;;;;;4948155;28;20428;-60
2021/08/06 15:10:21;;;;;;;2.08;1.40;;;;;;;;;;4954006;28;20593;-60
2021/08/06 15:12:46;;;;;;;2.20;1.30;;;;;;;;;;4968151;28;20208;-61
2021/08/06 15:15:12;;;;;;;1.35;1.25;;;;;;;;;;4973857;28;20287;-62